createdAt,value
2019-02-18T17:04:20.479Z,13.30
2019-02-18T17:06:51.042Z,13.30
2019-02-18T17:09:22.217Z,13.20
2019-02-18T17:11:52.895Z,13.10
2019-02-18T17:14:23.567Z,13.10
2019-02-18T17:16:54.570Z,13.00
2019-02-18T17:19:25.123Z,13.00
2019-02-18T17:21:55.737Z,13.00
2019-02-18T17:24:26.175Z,12.90
2019-02-18T17:26:56.714Z,12.90
2019-02-18T17:29:28.207Z,12.80
2019-02-18T17:31:59.858Z,12.80
2019-02-18T17:34:30.678Z,12.80
2019-02-18T17:37:01.519Z,12.80
2019-02-18T17:39:32.361Z,12.70
2019-02-18T17:42:02.434Z,12.70
2019-02-18T17:44:33.125Z,12.60
2019-02-18T17:47:03.880Z,12.50
2019-02-18T17:49:34.859Z,12.50
2019-02-18T17:52:05.576Z,12.40
2019-02-18T17:54:36.296Z,12.40
2019-02-18T17:57:06.660Z,12.40
2019-02-18T17:59:37.412Z,12.30
2019-02-18T18:02:08.356Z,12.30
2019-02-18T18:04:38.911Z,12.30
2019-02-18T18:07:09.831Z,12.30
2019-02-18T18:09:40.957Z,12.20
2019-02-18T18:12:11.886Z,12.20
2019-02-18T18:14:42.900Z,12.20
2019-02-18T18:17:14.078Z,12.20
2019-02-18T18:19:45.062Z,12.20
2019-02-18T18:22:15.966Z,12.10
2019-02-18T18:24:46.966Z,12.10
2019-02-18T18:27:17.823Z,12.00
2019-02-18T18:29:49.218Z,12.00
2019-02-18T18:32:20.118Z,11.90
2019-02-18T18:34:50.543Z,11.90
2019-02-18T18:37:21.424Z,11.90
2019-02-18T18:39:52.554Z,11.80
2019-02-18T18:42:25.016Z,11.80
2019-02-18T18:44:55.922Z,11.80
2019-02-18T18:47:26.739Z,11.80
2019-02-18T18:49:57.729Z,11.70
2019-02-18T18:52:30.428Z,11.60
2019-02-18T18:55:01.919Z,11.60
2019-02-18T18:57:32.713Z,11.60
2019-02-18T19:00:04.954Z,11.60
2019-02-18T19:02:37.375Z,11.60
2019-02-18T19:05:09.034Z,11.50
2019-02-18T19:07:40.305Z,11.50
2019-02-18T19:10:11.270Z,11.50
2019-02-18T19:12:42.143Z,11.50
2019-02-18T19:15:14.590Z,11.50
2019-02-18T19:17:45.526Z,11.40
2019-02-18T19:20:16.682Z,11.30
2019-02-18T19:22:47.570Z,11.30
2019-02-18T19:25:18.444Z,11.20
2019-02-18T19:27:49.353Z,11.20
2019-02-18T19:30:31.402Z,11.10
2019-02-18T19:33:03.285Z,11.10
2019-02-18T19:35:33.578Z,11.00
2019-02-18T19:38:04.664Z,10.90
2019-02-18T19:40:35.204Z,10.80
2019-02-18T19:43:06.445Z,10.70
2019-02-18T19:45:36.803Z,10.60
2019-02-18T19:48:07.688Z,10.60
2019-02-18T19:50:38.617Z,10.60
2019-02-18T19:53:10.810Z,10.50
2019-02-18T19:55:41.863Z,10.50
2019-02-18T19:58:12.645Z,10.50
2019-02-18T20:00:43.005Z,10.50
2019-02-18T20:03:14.473Z,10.50
2019-02-18T20:05:45.479Z,10.40
2019-02-18T20:08:18.603Z,10.40
2019-02-18T20:10:48.988Z,10.30
2019-02-18T20:13:20.841Z,10.20
2019-02-18T20:15:51.701Z,10.20
2019-02-18T20:18:22.224Z,10.10
2019-02-18T20:20:52.561Z,10.10
2019-02-18T20:23:24.488Z,10.10
2019-02-18T20:25:55.034Z,10.10
2019-02-18T20:28:25.303Z,10.10
2019-02-18T20:30:55.715Z,10.10
2019-02-18T20:33:26.092Z,10.10
2019-02-18T20:35:57.104Z,10.10
2019-02-18T20:38:27.981Z,10.10
2019-02-18T20:40:59.243Z,10.10
2019-02-18T20:43:30.140Z,10.20
2019-02-18T20:46:01.978Z,10.20
2019-02-18T20:48:32.915Z,10.20
2019-02-18T20:51:03.851Z,10.20
2019-02-18T20:53:35.118Z,10.30
2019-02-18T20:56:06.053Z,10.30
2019-02-18T20:58:38.213Z,10.20
2019-02-18T21:01:11.002Z,10.20
2019-02-18T21:03:41.806Z,10.20
2019-02-18T21:06:12.859Z,10.10
2019-02-18T21:08:44.107Z,10.10
2019-02-18T21:11:14.988Z,10.10
2019-02-18T21:13:45.345Z,10.00
2019-02-18T21:16:16.397Z,10.00
2019-02-18T21:18:46.855Z,10.00
2019-02-18T21:21:17.645Z,10.00
2019-02-18T21:23:48.405Z,9.90
2019-02-18T21:26:18.619Z,9.90
2019-02-18T21:28:49.156Z,9.90
2019-02-18T21:31:19.281Z,10.00
2019-02-18T21:33:50.143Z,10.00
2019-02-18T21:36:20.609Z,10.00
2019-02-18T21:38:51.374Z,10.00
2019-02-18T21:41:21.982Z,10.00
2019-02-18T21:43:51.752Z,9.90
2019-02-18T21:46:22.296Z,9.90
2019-02-18T21:48:52.153Z,9.80
2019-02-18T21:51:22.114Z,9.80
2019-02-18T21:53:51.869Z,9.70
2019-02-18T21:56:21.765Z,9.70
2019-02-18T21:58:51.596Z,9.70
2019-02-18T22:01:21.476Z,9.60
2019-02-18T22:03:51.452Z,9.60
2019-02-18T22:06:21.400Z,9.50
2019-02-18T22:08:51.357Z,9.50
2019-02-18T22:11:21.251Z,9.50
2019-02-18T22:13:51.118Z,9.40
2019-02-18T22:16:21.034Z,9.30
2019-02-18T22:18:51.488Z,9.30
2019-02-18T22:21:21.535Z,9.20
2019-02-18T22:23:52.092Z,9.10
2019-02-18T22:26:21.940Z,9.00
2019-02-18T22:28:51.870Z,8.90
2019-02-18T22:31:21.710Z,8.90
2019-02-18T22:33:51.492Z,8.80
2019-02-18T22:36:21.934Z,8.70
2019-02-18T22:38:51.805Z,8.50
2019-02-18T22:41:21.826Z,8.40
2019-02-18T22:43:51.633Z,8.30
2019-02-18T22:46:21.785Z,8.20
2019-02-18T22:48:51.694Z,8.10
2019-02-18T22:51:21.658Z,8.10
2019-02-18T22:53:51.521Z,8.00
2019-02-18T22:56:22.377Z,7.90
2019-02-18T22:58:52.134Z,7.90
2019-02-18T23:01:22.198Z,7.80
2019-02-18T23:03:52.153Z,7.80
2019-02-18T23:06:22.527Z,7.80
2019-02-18T23:08:53.445Z,7.80
2019-02-18T23:11:23.470Z,7.80
2019-02-18T23:13:53.416Z,7.90
2019-02-18T23:16:23.398Z,7.90
2019-02-18T23:18:53.535Z,8.00
2019-02-18T23:21:23.773Z,8.00
2019-02-18T23:23:53.616Z,8.10
2019-02-18T23:26:23.784Z,8.10
2019-02-18T23:28:53.731Z,8.10
2019-02-18T23:31:23.740Z,8.10
2019-02-18T23:33:53.584Z,8.10
2019-02-18T23:36:23.878Z,8.00
2019-02-18T23:38:53.720Z,8.00
2019-02-18T23:41:23.646Z,8.10
2019-02-18T23:43:53.566Z,8.10
2019-02-18T23:46:23.437Z,8.10
2019-02-18T23:48:53.311Z,8.10
2019-02-18T23:51:23.268Z,8.00
2019-02-18T23:53:53.125Z,8.00
2019-02-18T23:56:23.005Z,8.00
2019-02-18T23:58:53.978Z,8.00
